sensor_id;sensor_type;location;lat;lon;timestamp;pressure;altitude;pressure_sealevel;temperature;humidity
8229;BME280;4155;50.118;8.714;2022-08-21T00:01:41;100194.03;;;20.45;61.17
8229;BME280;4155;50.118;8.714;2022-08-21T00:04:10;100185.75;;;20.40;61.57
8229;BME280;4155;50.118;8.714;2022-08-21T00:06:47;100187.53;;;20.25;61.15
8229;BME280;4155;50.118;8.714;2022-08-21T00:09:17;100181.50;;;20.22;61.43
8229;BME280;4155;50.118;8.714;2022-08-21T00:11:45;100173.72;;;20.09;61.56
8229;BME280;4155;50.118;8.714;2022-08-21T00:14:14;100186.78;;;20.07;61.60
8229;BME280;4155;50.118;8.714;2022-08-21T00:16:42;100176.94;;;20.01;61.77
8229;BME280;4155;50.118;8.714;2022-08-21T00:19:10;100176.41;;;20.04;62.53
8229;BME280;4155;50.118;8.714;2022-08-21T00:21:38;100177.19;;;20.00;63.02
8229;BME280;4155;50.118;8.714;2022-08-21T00:24:10;100170.03;;;19.93;62.98
8229;BME280;4155;50.118;8.714;2022-08-21T00:26:40;100163.19;;;19.91;63.52
8229;BME280;4155;50.118;8.714;2022-08-21T00:29:09;100170.31;;;19.97;63.82
8229;BME280;4155;50.118;8.714;2022-08-21T00:31:37;100167.81;;;19.90;64.14
8229;BME280;4155;50.118;8.714;2022-08-21T00:34:04;100167.44;;;19.82;64.29
8229;BME280;4155;50.118;8.714;2022-08-21T00:36:33;100169.91;;;19.83;64.94
8229;BME280;4155;50.118;8.714;2022-08-21T00:39:01;100169.59;;;19.80;64.78
8229;BME280;4155;50.118;8.714;2022-08-21T00:41:28;100171.84;;;19.88;64.58
8229;BME280;4155;50.118;8.714;2022-08-21T00:44:06;100176.34;;;19.77;64.84
8229;BME280;4155;50.118;8.714;2022-08-21T00:46:35;100165.66;;;19.71;65.26
8229;BME280;4155;50.118;8.714;2022-08-21T00:49:03;100167.31;;;19.72;65.68
8229;BME280;4155;50.118;8.714;2022-08-21T00:51:37;100167.81;;;19.69;65.55
8229;BME280;4155;50.118;8.714;2022-08-21T00:54:06;100172.94;;;19.65;66.19
8229;BME280;4155;50.118;8.714;2022-08-21T00:56:45;100166.66;;;19.64;66.06
8229;BME280;4155;50.118;8.714;2022-08-21T00:59:15;100168.25;;;19.60;67.17
8229;BME280;4155;50.118;8.714;2022-08-21T01:01:43;100176.97;;;19.62;66.84
8229;BME280;4155;50.118;8.714;2022-08-21T01:04:11;100173.00;;;19.53;66.88
8229;BME280;4155;50.118;8.714;2022-08-21T01:06:39;100176.56;;;19.54;67.12
8229;BME280;4155;50.118;8.714;2022-08-21T01:09:06;100168.00;;;19.45;66.99
8229;BME280;4155;50.118;8.714;2022-08-21T01:11:35;100168.72;;;19.35;67.68
8229;BME280;4155;50.118;8.714;2022-08-21T01:14:04;100174.63;;;19.32;67.48
8229;BME280;4155;50.118;8.714;2022-08-21T01:16:33;100169.44;;;19.31;68.12
8229;BME280;4155;50.118;8.714;2022-08-21T01:19:02;100168.38;;;19.32;68.11
8229;BME280;4155;50.118;8.714;2022-08-21T01:21:31;100165.59;;;19.27;68.31
8229;BME280;4155;50.118;8.714;2022-08-21T01:23:59;100176.72;;;19.25;67.95
8229;BME280;4155;50.118;8.714;2022-08-21T01:26:30;100178.94;;;19.28;67.66
8229;BME280;4155;50.118;8.714;2022-08-21T01:29:03;100169.75;;;19.34;67.48
8229;BME280;4155;50.118;8.714;2022-08-21T01:31:32;100170.28;;;19.31;67.42
8229;BME280;4155;50.118;8.714;2022-08-21T01:34:00;100171.50;;;19.24;67.12
8229;BME280;4155;50.118;8.714;2022-08-21T01:36:29;100168.72;;;19.19;67.97
8229;BME280;4155;50.118;8.714;2022-08-21T01:38:58;100176.88;;;19.19;67.59
8229;BME280;4155;50.118;8.714;2022-08-21T01:41:27;100173.75;;;19.10;67.72
8229;BME280;4155;50.118;8.714;2022-08-21T01:43:55;100179.50;;;19.14;68.14
8229;BME280;4155;50.118;8.714;2022-08-21T01:46:22;100173.03;;;19.15;68.30
8229;BME280;4155;50.118;8.714;2022-08-21T01:48:50;100176.94;;;19.24;67.85
8229;BME280;4155;50.118;8.714;2022-08-21T01:51:18;100171.97;;;19.16;67.81
8229;BME280;4155;50.118;8.714;2022-08-21T01:53:46;100167.41;;;19.21;67.87
8229;BME280;4155;50.118;8.714;2022-08-21T01:56:16;100172.53;;;19.18;68.12
8229;BME280;4155;50.118;8.714;2022-08-21T01:58:45;100165.03;;;19.08;67.81
8229;BME280;4155;50.118;8.714;2022-08-21T02:01:16;100165.19;;;19.01;68.51
8229;BME280;4155;50.118;8.714;2022-08-21T02:03:43;100160.78;;;18.95;68.56
8229;BME280;4155;50.118;8.714;2022-08-21T02:06:15;100166.47;;;18.94;68.69
8229;BME280;4155;50.118;8.714;2022-08-21T02:08:44;100166.03;;;18.85;69.22
8229;BME280;4155;50.118;8.714;2022-08-21T02:11:12;100161.00;;;18.77;69.60
8229;BME280;4155;50.118;8.714;2022-08-21T02:13:41;100162.25;;;18.69;69.63
8229;BME280;4155;50.118;8.714;2022-08-21T02:16:09;100163.31;;;18.68;69.67
8229;BME280;4155;50.118;8.714;2022-08-21T02:18:42;100165.09;;;18.63;70.09
8229;BME280;4155;50.118;8.714;2022-08-21T02:21:10;100158.03;;;18.62;70.29
8229;BME280;4155;50.118;8.714;2022-08-21T02:23:38;100153.63;;;18.61;70.20
8229;BME280;4155;50.118;8.714;2022-08-21T02:26:07;100153.06;;;18.59;70.18
8229;BME280;4155;50.118;8.714;2022-08-21T02:28:36;100152.25;;;18.58;70.65
8229;BME280;4155;50.118;8.714;2022-08-21T02:31:05;100152.25;;;18.58;70.34
8229;BME280;4155;50.118;8.714;2022-08-21T02:33:33;100158.03;;;18.62;70.77
8229;BME280;4155;50.118;8.714;2022-08-21T02:36:02;100154.13;;;18.58;70.51
8229;BME280;4155;50.118;8.714;2022-08-21T02:38:33;100145.63;;;18.66;70.19
8229;BME280;4155;50.118;8.714;2022-08-21T02:41:04;100154.25;;;18.63;70.10
8229;BME280;4155;50.118;8.714;2022-08-21T02:43:32;100145.91;;;18.53;70.11
8229;BME280;4155;50.118;8.714;2022-08-21T02:46:00;100151.75;;;18.44;70.12
8229;BME280;4155;50.118;8.714;2022-08-21T02:48:30;100152.88;;;18.32;70.39
8229;BME280;4155;50.118;8.714;2022-08-21T02:51:03;100153.13;;;18.30;70.42
8229;BME280;4155;50.118;8.714;2022-08-21T02:53:32;100152.88;;;18.32;70.32
8229;BME280;4155;50.118;8.714;2022-08-21T02:56:03;100148.84;;;18.34;70.11
8229;BME280;4155;50.118;8.714;2022-08-21T02:58:34;100153.84;;;18.26;70.31
8229;BME280;4155;50.118;8.714;2022-08-21T03:01:02;100146.47;;;18.38;70.51
8229;BME280;4155;50.118;8.714;2022-08-21T03:03:32;100151.31;;;18.36;70.53
8229;BME280;4155;50.118;8.714;2022-08-21T03:06:02;100147.69;;;18.30;70.75
8229;BME280;4155;50.118;8.714;2022-08-21T03:08:30;100147.09;;;18.28;70.49
8229;BME280;4155;50.118;8.714;2022-08-21T03:10:58;100148.16;;;18.27;70.85
8229;BME280;4155;50.118;8.714;2022-08-21T03:13:26;100135.41;;;18.11;70.96
8229;BME280;4155;50.118;8.714;2022-08-21T03:15:54;100133.31;;;18.01;71.18
8229;BME280;4155;50.118;8.714;2022-08-21T03:18:23;100140.75;;;17.94;71.20
8229;BME280;4155;50.118;8.714;2022-08-21T03:20:52;100136.84;;;18.02;71.03
8229;BME280;4155;50.118;8.714;2022-08-21T03:23:21;100139.44;;;17.97;71.31
8229;BME280;4155;50.118;8.714;2022-08-21T03:25:49;100146.44;;;17.92;71.14
8229;BME280;4155;50.118;8.714;2022-08-21T03:28:21;100146.00;;;17.84;71.35
8229;BME280;4155;50.118;8.714;2022-08-21T03:30:56;100143.69;;;17.76;71.58
8229;BME280;4155;50.118;8.714;2022-08-21T03:33:24;100152.84;;;17.75;71.63
8229;BME280;4155;50.118;8.714;2022-08-21T03:35:59;100155.69;;;17.68;71.78
8229;BME280;4155;50.118;8.714;2022-08-21T03:38:29;100159.00;;;17.58;73.18
8229;BME280;4155;50.118;8.714;2022-08-21T03:40:57;100165.13;;;17.54;74.22
8229;BME280;4155;50.118;8.714;2022-08-21T03:43:25;100162.41;;;17.54;73.95
8229;BME280;4155;50.118;8.714;2022-08-21T03:45:56;100164.56;;;17.52;74.17
8229;BME280;4155;50.118;8.714;2022-08-21T03:48:24;100163.06;;;17.44;74.66
8229;BME280;4155;50.118;8.714;2022-08-21T03:50:52;100163.16;;;17.38;74.97
8229;BME280;4155;50.118;8.714;2022-08-21T03:53:21;100167.19;;;17.35;75.23
8229;BME280;4155;50.118;8.714;2022-08-21T03:55:50;100171.41;;;17.31;75.72
8229;BME280;4155;50.118;8.714;2022-08-21T03:58:22;100181.91;;;17.27;75.64
8229;BME280;4155;50.118;8.714;2022-08-21T04:00:51;100175.91;;;17.25;75.53
8229;BME280;4155;50.118;8.714;2022-08-21T04:03:20;100183.69;;;17.10;74.80
8229;BME280;4155;50.118;8.714;2022-08-21T04:05:48;100180.38;;;17.08;74.91
8229;BME280;4155;50.118;8.714;2022-08-21T04:08:17;100194.66;;;17.15;74.37
8229;BME280;4155;50.118;8.714;2022-08-21T04:10:50;100196.63;;;17.20;74.01
8229;BME280;4155;50.118;8.714;2022-08-21T04:13:21;100186.88;;;17.19;73.84
8229;BME280;4155;50.118;8.714;2022-08-21T04:15:49;100190.63;;;17.18;73.54
8229;BME280;4155;50.118;8.714;2022-08-21T04:18:17;100197.13;;;17.28;73.11
8229;BME280;4155;50.118;8.714;2022-08-21T04:20:47;100196.78;;;17.25;72.82
8229;BME280;4155;50.118;8.714;2022-08-21T04:23:16;100190.75;;;17.34;72.95
8229;BME280;4155;50.118;8.714;2022-08-21T04:25:52;100191.69;;;17.40;72.50
8229;BME280;4155;50.118;8.714;2022-08-21T04:28:21;100198.06;;;17.34;72.28
8229;BME280;4155;50.118;8.714;2022-08-21T04:30:55;100199.34;;;17.31;72.08
8229;BME280;4155;50.118;8.714;2022-08-21T04:33:23;100202.31;;;17.18;72.31
8229;BME280;4155;50.118;8.714;2022-08-21T04:35:51;100206.41;;;17.21;72.59
8229;BME280;4155;50.118;8.714;2022-08-21T04:38:19;100206.19;;;17.22;72.42
8229;BME280;4155;50.118;8.714;2022-08-21T04:40:47;100203.72;;;17.21;72.79
8229;BME280;4155;50.118;8.714;2022-08-21T04:43:18;100204.91;;;17.25;72.66
8229;BME280;4155;50.118;8.714;2022-08-21T04:45:48;100214.78;;;17.19;72.71
8229;BME280;4155;50.118;8.714;2022-08-21T04:48:18;100218.09;;;17.33;72.10
8229;BME280;4155;50.118;8.714;2022-08-21T04:50:50;100203.13;;;17.42;71.38
8229;BME280;4155;50.118;8.714;2022-08-21T04:53:22;100208.41;;;17.72;70.77
8229;BME280;4155;50.118;8.714;2022-08-21T04:55:52;100214.78;;;17.78;70.27
8229;BME280;4155;50.118;8.714;2022-08-21T04:58:25;100222.19;;;17.82;70.05
8229;BME280;4155;50.118;8.714;2022-08-21T05:00:54;100218.19;;;17.73;70.28
8229;BME280;4155;50.118;8.714;2022-08-21T05:03:24;100228.59;;;17.76;70.00
8229;BME280;4155;50.118;8.714;2022-08-21T05:05:52;100231.16;;;17.83;69.66
8229;BME280;4155;50.118;8.714;2022-08-21T05:08:21;100235.38;;;18.02;69.24
8229;BME280;4155;50.118;8.714;2022-08-21T05:10:51;100226.44;;;18.30;69.26
8229;BME280;4155;50.118;8.714;2022-08-21T05:13:27;100236.81;;;18.62;68.95
8229;BME280;4155;50.118;8.714;2022-08-21T05:15:55;100233.47;;;18.88;67.61
8229;BME280;4155;50.118;8.714;2022-08-21T05:18:23;100245.28;;;18.94;68.03
8229;BME280;4155;50.118;8.714;2022-08-21T05:20:50;100244.81;;;18.68;68.85
8229;BME280;4155;50.118;8.714;2022-08-21T05:23:18;100239.13;;;18.70;68.60
8229;BME280;4155;50.118;8.714;2022-08-21T05:25:46;100240.56;;;18.89;68.04
8229;BME280;4155;50.118;8.714;2022-08-21T05:28:14;100240.66;;;19.28;67.26
8229;BME280;4155;50.118;8.714;2022-08-21T05:30:43;100242.59;;;19.66;65.26
8229;BME280;4155;50.118;8.714;2022-08-21T05:33:11;100245.47;;;20.20;63.75
8229;BME280;4155;50.118;8.714;2022-08-21T05:35:39;100241.41;;;20.71;61.98
8229;BME280;4155;50.118;8.714;2022-08-21T05:38:07;100247.44;;;20.46;62.69
8229;BME280;4155;50.118;8.714;2022-08-21T05:40:44;100241.56;;;20.11;62.90
8229;BME280;4155;50.118;8.714;2022-08-21T05:43:14;100242.19;;;20.18;63.15
8229;BME280;4155;50.118;8.714;2022-08-21T05:45:43;100239.84;;;19.83;63.60
8229;BME280;4155;50.118;8.714;2022-08-21T05:48:13;100231.00;;;19.92;64.05
8229;BME280;4155;50.118;8.714;2022-08-21T05:50:43;100247.59;;;20.89;60.84
8229;BME280;4155;50.118;8.714;2022-08-21T05:53:11;100232.72;;;22.53;56.32
8229;BME280;4155;50.118;8.714;2022-08-21T05:55:39;100237.66;;;23.69;52.28
8229;BME280;4155;50.118;8.714;2022-08-21T05:58:12;100236.56;;;24.89;48.75
8229;BME280;4155;50.118;8.714;2022-08-21T06:00:39;100233.66;;;25.67;45.85
8229;BME280;4155;50.118;8.714;2022-08-21T06:03:12;100227.38;;;25.61;46.17
8229;BME280;4155;50.118;8.714;2022-08-21T06:05:42;100220.97;;;26.57;45.38
8229;BME280;4155;50.118;8.714;2022-08-21T06:08:09;100217.25;;;27.64;42.99
8229;BME280;4155;50.118;8.714;2022-08-21T06:10:37;100209.59;;;27.47;42.73
8229;BME280;4155;50.118;8.714;2022-08-21T06:13:05;100216.63;;;28.36;40.40
8229;BME280;4155;50.118;8.714;2022-08-21T06:15:32;100211.13;;;29.17;39.99
8229;BME280;4155;50.118;8.714;2022-08-21T06:18:02;100206.13;;;28.96;40.31
8229;BME280;4155;50.118;8.714;2022-08-21T06:20:32;100198.44;;;28.35;40.55
8229;BME280;4155;50.118;8.714;2022-08-21T06:23:00;100193.75;;;28.21;41.11
8229;BME280;4155;50.118;8.714;2022-08-21T06:25:28;100198.88;;;28.64;40.25
8229;BME280;4155;50.118;8.714;2022-08-21T06:28:00;100201.16;;;29.69;38.62
8229;BME280;4155;50.118;8.714;2022-08-21T06:30:29;100194.50;;;27.45;42.18
8229;BME280;4155;50.118;8.714;2022-08-21T06:32:57;100199.09;;;28.04;41.39
8229;BME280;4155;50.118;8.714;2022-08-21T06:35:25;100199.19;;;28.85;39.50
8229;BME280;4155;50.118;8.714;2022-08-21T06:37:57;100195.41;;;29.48;38.84
8229;BME280;4155;50.118;8.714;2022-08-21T06:40:25;100192.91;;;29.86;38.38
8229;BME280;4155;50.118;8.714;2022-08-21T06:42:56;100184.78;;;29.81;38.17
8229;BME280;4155;50.118;8.714;2022-08-21T06:45:24;100184.91;;;29.76;38.03
8229;BME280;4155;50.118;8.714;2022-08-21T06:47:57;100185.34;;;29.61;38.95
8229;BME280;4155;50.118;8.714;2022-08-21T06:50:25;100184.03;;;28.96;40.17
8229;BME280;4155;50.118;8.714;2022-08-21T06:52:59;100183.78;;;27.98;41.52
8229;BME280;4155;50.118;8.714;2022-08-21T06:55:27;100172.09;;;27.19;42.57
8229;BME280;4155;50.118;8.714;2022-08-21T06:57:55;100178.91;;;27.81;42.20
8229;BME280;4155;50.118;8.714;2022-08-21T07:00:23;100183.72;;;28.25;41.56
8229;BME280;4155;50.118;8.714;2022-08-21T07:02:50;100185.81;;;29.01;40.38
8229;BME280;4155;50.118;8.714;2022-08-21T07:05:18;100180.25;;;29.94;37.53
8229;BME280;4155;50.118;8.714;2022-08-21T07:07:46;100178.47;;;31.28;36.68
8229;BME280;4155;50.118;8.714;2022-08-21T07:10:15;100177.72;;;30.58;37.22
8229;BME280;4155;50.118;8.714;2022-08-21T07:12:48;100167.56;;;28.46;40.50
8229;BME280;4155;50.118;8.714;2022-08-21T07:15:27;100177.72;;;30.15;38.48
8229;BME280;4155;50.118;8.714;2022-08-21T07:17:56;100176.97;;;29.83;37.98
8229;BME280;4155;50.118;8.714;2022-08-21T07:20:24;100181.50;;;30.79;36.61
8229;BME280;4155;50.118;8.714;2022-08-21T07:22:52;100167.53;;;28.10;41.00
8229;BME280;4155;50.118;8.714;2022-08-21T07:25:22;100180.69;;;28.13;41.71
8229;BME280;4155;50.118;8.714;2022-08-21T07:27:49;100170.59;;;28.09;41.95
8229;BME280;4155;50.118;8.714;2022-08-21T07:30:17;100182.44;;;29.66;39.01
8229;BME280;4155;50.118;8.714;2022-08-21T07:32:45;100185.50;;;31.17;36.60
8229;BME280;4155;50.118;8.714;2022-08-21T07:35:16;100177.41;;;30.51;37.29
8229;BME280;4155;50.118;8.714;2022-08-21T07:37:43;100172.97;;;30.07;38.07
8229;BME280;4155;50.118;8.714;2022-08-21T07:40:12;100174.09;;;31.09;36.51
8229;BME280;4155;50.118;8.714;2022-08-21T07:42:42;100178.28;;;31.71;35.86
8229;BME280;4155;50.118;8.714;2022-08-21T07:45:11;100168.56;;;30.06;38.33
8229;BME280;4155;50.118;8.714;2022-08-21T07:47:39;100163.56;;;30.77;37.03
8229;BME280;4155;50.118;8.714;2022-08-21T07:50:09;100163.09;;;30.66;38.35
8229;BME280;4155;50.118;8.714;2022-08-21T07:52:37;100167.34;;;32.34;34.57
8229;BME280;4155;50.118;8.714;2022-08-21T07:55:06;100155.56;;;32.07;35.50
8229;BME280;4155;50.118;8.714;2022-08-21T07:57:35;100161.22;;;31.90;35.92
8229;BME280;4155;50.118;8.714;2022-08-21T08:00:06;100155.25;;;31.50;36.47
8229;BME280;4155;50.118;8.714;2022-08-21T08:02:34;100158.88;;;31.80;36.28
8229;BME280;4155;50.118;8.714;2022-08-21T08:05:05;100161.88;;;33.12;34.35
8229;BME280;4155;50.118;8.714;2022-08-21T08:07:33;100158.63;;;32.14;35.29
8229;BME280;4155;50.118;8.714;2022-08-21T08:10:02;100149.47;;;32.43;34.85
8229;BME280;4155;50.118;8.714;2022-08-21T08:12:29;100154.06;;;31.59;36.67
8229;BME280;4155;50.118;8.714;2022-08-21T08:14:58;100148.66;;;29.78;39.00
8229;BME280;4155;50.118;8.714;2022-08-21T08:17:28;100151.53;;;29.24;40.35
8229;BME280;4155;50.118;8.714;2022-08-21T08:19:56;100155.81;;;29.08;40.71
8229;BME280;4155;50.118;8.714;2022-08-21T08:22:23;100160.16;;;29.00;41.21
8229;BME280;4155;50.118;8.714;2022-08-21T08:24:52;100162.41;;;28.53;43.02
8229;BME280;4155;50.118;8.714;2022-08-21T08:27:20;100163.63;;;28.61;42.11
8229;BME280;4155;50.118;8.714;2022-08-21T08:29:49;100168.19;;;29.81;40.04
8229;BME280;4155;50.118;8.714;2022-08-21T08:32:18;100155.00;;;29.07;41.31
8229;BME280;4155;50.118;8.714;2022-08-21T08:34:48;100163.38;;;29.56;40.24
8229;BME280;4155;50.118;8.714;2022-08-21T08:37:18;100147.47;;;28.77;41.63
8229;BME280;4155;50.118;8.714;2022-08-21T08:39:49;100152.47;;;28.89;41.57
8229;BME280;4155;50.118;8.714;2022-08-21T08:42:22;100154.44;;;30.24;39.54
8229;BME280;4155;50.118;8.714;2022-08-21T08:45:04;100134.56;;;28.64;43.03
8229;BME280;4155;50.118;8.714;2022-08-21T08:47:36;100141.16;;;28.76;42.59
8229;BME280;4155;50.118;8.714;2022-08-21T08:50:07;100144.13;;;29.42;41.09
8229;BME280;4155;50.118;8.714;2022-08-21T08:52:42;100134.06;;;30.03;39.67
8229;BME280;4155;50.118;8.714;2022-08-21T08:55:14;100135.38;;;30.58;39.08
8229;BME280;4155;50.118;8.714;2022-08-21T08:57:46;100130.72;;;29.58;40.72
8229;BME280;4155;50.118;8.714;2022-08-21T09:00:18;100121.53;;;29.40;41.29
8229;BME280;4155;50.118;8.714;2022-08-21T09:02:47;100122.09;;;27.94;43.71
8229;BME280;4155;50.118;8.714;2022-08-21T09:05:24;100111.63;;;26.30;46.46
8229;BME280;4155;50.118;8.714;2022-08-21T09:08:02;100113.09;;;26.92;46.15
8229;BME280;4155;50.118;8.714;2022-08-21T09:10:41;100111.22;;;27.06;44.90
8229;BME280;4155;50.118;8.714;2022-08-21T09:13:18;100108.19;;;26.89;45.36
8229;BME280;4155;50.118;8.714;2022-08-21T09:15:53;100115.19;;;27.14;45.36
8229;BME280;4155;50.118;8.714;2022-08-21T09:18:32;100113.03;;;27.52;43.63
8229;BME280;4155;50.118;8.714;2022-08-21T09:21:13;100112.53;;;27.64;43.31
8229;BME280;4155;50.118;8.714;2022-08-21T09:23:50;100116.72;;;27.75;41.87
8229;BME280;4155;50.118;8.714;2022-08-21T09:26:24;100109.63;;;27.96;40.56
8229;BME280;4155;50.118;8.714;2022-08-21T09:28:58;100094.44;;;27.85;40.53
8229;BME280;4155;50.118;8.714;2022-08-21T09:31:29;100100.09;;;27.80;40.73
8229;BME280;4155;50.118;8.714;2022-08-21T09:33:58;100102.22;;;27.97;39.93
8229;BME280;4155;50.118;8.714;2022-08-21T09:36:35;100102.50;;;27.95;40.31
8229;BME280;4155;50.118;8.714;2022-08-21T09:39:04;100109.41;;;28.07;39.57
8229;BME280;4155;50.118;8.714;2022-08-21T09:41:33;100096.13;;;27.73;40.23
8229;BME280;4155;50.118;8.714;2022-08-21T09:44:02;100102.13;;;27.75;39.52
8229;BME280;4155;50.118;8.714;2022-08-21T09:46:31;100093.50;;;27.67;39.24
8229;BME280;4155;50.118;8.714;2022-08-21T09:49:03;100097.75;;;27.46;38.97
8229;BME280;4155;50.118;8.714;2022-08-21T09:51:50;100093.16;;;27.55;39.45
8229;BME280;4155;50.118;8.714;2022-08-21T09:54:26;100099.19;;;27.57;40.13
8229;BME280;4155;50.118;8.714;2022-08-21T09:56:57;100091.84;;;27.25;39.45
8229;BME280;4155;50.118;8.714;2022-08-21T09:59:45;100086.03;;;27.54;38.90
8229;BME280;4155;50.118;8.714;2022-08-21T10:02:26;100088.06;;;27.76;39.01
8229;BME280;4155;50.118;8.714;2022-08-21T10:04:59;100087.06;;;28.08;38.90
8229;BME280;4155;50.118;8.714;2022-08-21T10:07:31;100076.13;;;28.03;37.43
8229;BME280;4155;50.118;8.714;2022-08-21T10:10:05;100078.59;;;28.27;37.84
8229;BME280;4155;50.118;8.714;2022-08-21T10:12:42;100078.88;;;28.62;37.24
8229;BME280;4155;50.118;8.714;2022-08-21T10:15:18;100068.00;;;28.20;37.13
8229;BME280;4155;50.118;8.714;2022-08-21T10:17:54;100069.41;;;28.54;36.51
8229;BME280;4155;50.118;8.714;2022-08-21T10:20:29;100068.28;;;28.86;36.64
8229;BME280;4155;50.118;8.714;2022-08-21T10:23:11;100065.84;;;29.16;36.30
8229;BME280;4155;50.118;8.714;2022-08-21T10:25:50;100062.50;;;29.36;35.28
8229;BME280;4155;50.118;8.714;2022-08-21T10:28:45;100059.00;;;29.13;36.12
8229;BME280;4155;50.118;8.714;2022-08-21T10:31:20;100057.38;;;29.12;36.54
8229;BME280;4155;50.118;8.714;2022-08-21T10:34:06;100045.84;;;29.10;35.79
8229;BME280;4155;50.118;8.714;2022-08-21T10:36:45;100045.06;;;28.87;36.43
8229;BME280;4155;50.118;8.714;2022-08-21T10:39:21;100047.09;;;28.42;36.88
8229;BME280;4155;50.118;8.714;2022-08-21T10:42:23;100045.38;;;28.10;36.07
8229;BME280;4155;50.118;8.714;2022-08-21T10:45:07;100045.97;;;28.07;37.38
8229;BME280;4155;50.118;8.714;2022-08-21T10:47:42;100039.06;;;28.09;37.56
8229;BME280;4155;50.118;8.714;2022-08-21T10:50:19;100034.53;;;28.13;37.37
8229;BME280;4155;50.118;8.714;2022-08-21T10:53:11;100037.63;;;28.34;37.56
8229;BME280;4155;50.118;8.714;2022-08-21T10:55:44;100043.34;;;28.69;36.55
8229;BME280;4155;50.118;8.714;2022-08-21T10:58:20;100045.19;;;28.73;36.22
8229;BME280;4155;50.118;8.714;2022-08-21T11:00:53;100042.75;;;29.12;35.97
8229;BME280;4155;50.118;8.714;2022-08-21T11:03:29;100032.91;;;29.28;36.17
8229;BME280;4155;50.118;8.714;2022-08-21T11:06:04;100036.78;;;28.87;36.30
8229;BME280;4155;50.118;8.714;2022-08-21T11:08:38;100029.34;;;28.34;37.26
8229;BME280;4155;50.118;8.714;2022-08-21T11:11:13;100031.06;;;28.75;36.51
8229;BME280;4155;50.118;8.714;2022-08-21T11:13:50;100022.28;;;28.42;36.84
8229;BME280;4155;50.118;8.714;2022-08-21T11:16:24;100022.13;;;28.02;36.40
8229;BME280;4155;50.118;8.714;2022-08-21T11:18:57;100006.38;;;27.17;37.63
8229;BME280;4155;50.118;8.714;2022-08-21T11:21:34;100015.75;;;27.29;38.30
8229;BME280;4155;50.118;8.714;2022-08-21T11:24:15;100017.72;;;27.79;37.15
8229;BME280;4155;50.118;8.714;2022-08-21T11:26:48;100018.88;;;28.22;36.24
8229;BME280;4155;50.118;8.714;2022-08-21T11:29:22;100023.03;;;28.65;36.10
8229;BME280;4155;50.118;8.714;2022-08-21T11:32:23;100015.28;;;29.06;34.88
8229;BME280;4155;50.118;8.714;2022-08-21T11:34:58;100012.22;;;28.77;34.94
8229;BME280;4155;50.118;8.714;2022-08-21T11:37:40;100012.75;;;28.88;34.77
8229;BME280;4155;50.118;8.714;2022-08-21T11:40:36;100009.06;;;28.61;36.40
8229;BME280;4155;50.118;8.714;2022-08-21T11:43:12;99997.78;;;28.80;36.69
8229;BME280;4155;50.118;8.714;2022-08-21T11:45:45;99997.16;;;29.31;34.95
8229;BME280;4155;50.118;8.714;2022-08-21T11:48:26;99992.91;;;29.34;34.76
8229;BME280;4155;50.118;8.714;2022-08-21T11:50:56;99984.53;;;29.48;34.42
8229;BME280;4155;50.118;8.714;2022-08-21T11:53:29;99985.69;;;29.64;34.20
8229;BME280;4155;50.118;8.714;2022-08-21T11:56:03;99984.41;;;29.79;33.79
8229;BME280;4155;50.118;8.714;2022-08-21T11:58:38;99986.97;;;29.92;33.96
8229;BME280;4155;50.118;8.714;2022-08-21T12:01:10;99983.72;;;30.08;33.72
8229;BME280;4155;50.118;8.714;2022-08-21T12:03:42;99979.59;;;30.40;33.17
8229;BME280;4155;50.118;8.714;2022-08-21T12:06:28;99983.06;;;30.02;33.45
8229;BME280;4155;50.118;8.714;2022-08-21T12:08:59;99983.72;;;30.25;32.89
8229;BME280;4155;50.118;8.714;2022-08-21T12:11:27;99978.19;;;29.73;33.24
8229;BME280;4155;50.118;8.714;2022-08-21T12:14:00;99977.88;;;29.49;33.29
8229;BME280;4155;50.118;8.714;2022-08-21T12:16:40;99969.91;;;29.64;32.76
8229;BME280;4155;50.118;8.714;2022-08-21T12:19:10;99965.00;;;29.35;34.19
8229;BME280;4155;50.118;8.714;2022-08-21T12:21:49;99960.28;;;29.88;33.38
8229;BME280;4155;50.118;8.714;2022-08-21T12:24:19;99967.78;;;30.22;32.55
8229;BME280;4155;50.118;8.714;2022-08-21T12:26:55;99966.16;;;30.12;33.08
8229;BME280;4155;50.118;8.714;2022-08-21T12:29:27;99966.28;;;29.99;32.18
8229;BME280;4155;50.118;8.714;2022-08-21T12:31:58;99958.31;;;30.06;32.50
8229;BME280;4155;50.118;8.714;2022-08-21T12:34:34;99955.41;;;29.93;32.88
8229;BME280;4155;50.118;8.714;2022-08-21T12:37:04;99964.84;;;29.92;32.37
8229;BME280;4155;50.118;8.714;2022-08-21T12:39:36;99965.81;;;30.05;32.69
8229;BME280;4155;50.118;8.714;2022-08-21T12:42:14;99971.34;;;30.05;32.38
8229;BME280;4155;50.118;8.714;2022-08-21T12:44:47;99963.84;;;30.06;32.74
8229;BME280;4155;50.118;8.714;2022-08-21T12:47:20;99958.03;;;29.64;33.44
8229;BME280;4155;50.118;8.714;2022-08-21T12:49:54;99957.78;;;29.08;34.48
8229;BME280;4155;50.118;8.714;2022-08-21T12:52:33;99963.34;;;28.77;35.45
8229;BME280;4155;50.118;8.714;2022-08-21T12:55:06;99957.88;;;28.24;35.33
8229;BME280;4155;50.118;8.714;2022-08-21T12:57:36;99954.97;;;27.76;36.69
8229;BME280;4155;50.118;8.714;2022-08-21T13:00:10;99961.34;;;27.49;36.61
8229;BME280;4155;50.118;8.714;2022-08-21T13:02:43;99961.63;;;28.06;35.45
8229;BME280;4155;50.118;8.714;2022-08-21T13:05:16;99956.38;;;28.18;34.81
8229;BME280;4155;50.118;8.714;2022-08-21T13:07:47;99960.28;;;28.39;34.53
8229;BME280;4155;50.118;8.714;2022-08-21T13:10:18;99959.13;;;28.71;34.34
8229;BME280;4155;50.118;8.714;2022-08-21T13:12:48;99956.88;;;28.82;34.31
8229;BME280;4155;50.118;8.714;2022-08-21T13:15:25;99959.41;;;29.09;33.31
8229;BME280;4155;50.118;8.714;2022-08-21T13:17:59;99956.78;;;28.96;33.14
8229;BME280;4155;50.118;8.714;2022-08-21T13:20:32;99953.47;;;28.85;34.03
8229;BME280;4155;50.118;8.714;2022-08-21T13:23:01;99944.94;;;28.95;33.30
8229;BME280;4155;50.118;8.714;2022-08-21T13:25:34;99950.03;;;29.36;32.75
8229;BME280;4155;50.118;8.714;2022-08-21T13:28:06;99937.66;;;29.34;32.58
8229;BME280;4155;50.118;8.714;2022-08-21T13:30:39;99924.81;;;29.03;33.41
8229;BME280;4155;50.118;8.714;2022-08-21T13:33:07;99934.78;;;29.48;32.39
8229;BME280;4155;50.118;8.714;2022-08-21T13:35:47;99932.00;;;29.74;32.30